sensor_id;sensor_type;location;lat;lon;timestamp;temperature;humidity
19132;DHT22;9698;51.976;7.570;2023-04-24T00:01:04;12.90;99.90
19132;DHT22;9698;51.976;7.570;2023-04-24T00:03:34;12.90;99.90
19132;DHT22;9698;51.976;7.570;2023-04-24T00:06:03;12.80;99.90
19132;DHT22;9698;51.976;7.570;2023-04-24T00:08:32;12.90;99.90
19132;DHT22;9698;51.976;7.570;2023-04-24T00:11:00;12.90;99.90
19132;DHT22;9698;51.976;7.570;2023-04-24T00:13:28;13.00;99.90
19132;DHT22;9698;51.976;7.570;2023-04-24T00:15:56;12.80;99.90
19132;DHT22;9698;51.976;7.570;2023-04-24T00:18:24;12.80;99.90
19132;DHT22;9698;51.976;7.570;2023-04-24T00:20:52;12.80;99.90
19132;DHT22;9698;51.976;7.570;2023-04-24T00:23:20;12.80;99.90
19132;DHT22;9698;51.976;7.570;2023-04-24T00:25:47;12.90;99.90
19132;DHT22;9698;51.976;7.570;2023-04-24T00:28:15;12.80;95.60
19132;DHT22;9698;51.976;7.570;2023-04-24T00:30:43;12.90;89.40
19132;DHT22;9698;51.976;7.570;2023-04-24T00:33:11;12.80;91.90
19132;DHT22;9698;51.976;7.570;2023-04-24T00:35:39;12.90;91.10
19132;DHT22;9698;51.976;7.570;2023-04-24T00:38:07;12.70;78.80
19132;DHT22;9698;51.976;7.570;2023-04-24T00:40:35;12.90;89.50
19132;DHT22;9698;51.976;7.570;2023-04-24T00:43:03;13.00;41.20
19132;DHT22;9698;51.976;7.570;2023-04-24T00:45:31;12.90;34.00
19132;DHT22;9698;51.976;7.570;2023-04-24T00:48:01;12.90;26.10
19132;DHT22;9698;51.976;7.570;2023-04-24T00:50:30;12.60;36.50
19132;DHT22;9698;51.976;7.570;2023-04-24T00:52:57;12.80;45.80
19132;DHT22;9698;51.976;7.570;2023-04-24T00:55:26;12.90;26.10
19132;DHT22;9698;51.976;7.570;2023-04-24T00:57:54;12.80;15.80
19132;DHT22;9698;51.976;7.570;2023-04-24T01:00:22;12.90;1.00
19132;DHT22;9698;51.976;7.570;2023-04-24T01:02:50;12.80;19.60
19132;DHT22;9698;51.976;7.570;2023-04-24T01:05:19;12.90;1.00
19132;DHT22;9698;51.976;7.570;2023-04-24T01:07:48;12.80;1.00
19132;DHT22;9698;51.976;7.570;2023-04-24T01:10:16;12.80;1.00
19132;DHT22;9698;51.976;7.570;2023-04-24T01:12:45;12.80;1.00
19132;DHT22;9698;51.976;7.570;2023-04-24T01:15:13;12.80;1.00
19132;DHT22;9698;51.976;7.570;2023-04-24T01:17:41;12.70;1.00
19132;DHT22;9698;51.976;7.570;2023-04-24T01:20:10;12.60;1.00
19132;DHT22;9698;51.976;7.570;2023-04-24T01:22:38;13.00;1.00
19132;DHT22;9698;51.976;7.570;2023-04-24T01:25:08;12.70;1.00
19132;DHT22;9698;51.976;7.570;2023-04-24T01:27:36;12.60;1.00
19132;DHT22;9698;51.976;7.570;2023-04-24T01:30:07;12.70;1.00
19132;DHT22;9698;51.976;7.570;2023-04-24T01:32:35;12.60;1.00
19132;DHT22;9698;51.976;7.570;2023-04-24T01:35:07;12.70;1.00
19132;DHT22;9698;51.976;7.570;2023-04-24T01:37:35;12.70;1.00
19132;DHT22;9698;51.976;7.570;2023-04-24T01:40:06;12.70;1.00
19132;DHT22;9698;51.976;7.570;2023-04-24T01:42:35;12.70;1.00
19132;DHT22;9698;51.976;7.570;2023-04-24T01:45:05;12.70;1.00
19132;DHT22;9698;51.976;7.570;2023-04-24T01:47:33;12.70;10.30
19132;DHT22;9698;51.976;7.570;2023-04-24T01:50:01;12.70;5.60
19132;DHT22;9698;51.976;7.570;2023-04-24T01:52:29;12.70;15.50
19132;DHT22;9698;51.976;7.570;2023-04-24T01:55:00;12.70;23.10
19132;DHT22;9698;51.976;7.570;2023-04-24T01:57:28;12.70;5.50
19132;DHT22;9698;51.976;7.570;2023-04-24T01:59:57;12.70;13.50
19132;DHT22;9698;51.976;7.570;2023-04-24T02:02:26;12.70;13.50
19132;DHT22;9698;51.976;7.570;2023-04-24T02:04:56;12.70;8.80
19132;DHT22;9698;51.976;7.570;2023-04-24T02:07:24;12.70;4.20
19132;DHT22;9698;51.976;7.570;2023-04-24T02:09:52;12.70;9.60
19132;DHT22;9698;51.976;7.570;2023-04-24T02:12:19;12.60;13.20
19132;DHT22;9698;51.976;7.570;2023-04-24T02:14:47;12.70;30.10
19132;DHT22;9698;51.976;7.570;2023-04-24T02:17:15;12.70;25.40
19132;DHT22;9698;51.976;7.570;2023-04-24T02:19:43;12.70;43.10
19132;DHT22;9698;51.976;7.570;2023-04-24T02:22:11;12.60;57.80
19132;DHT22;9698;51.976;7.570;2023-04-24T02:24:39;12.70;28.20
19132;DHT22;9698;51.976;7.570;2023-04-24T02:27:07;12.80;19.40
19132;DHT22;9698;51.976;7.570;2023-04-24T02:29:36;12.60;28.20
19132;DHT22;9698;51.976;7.570;2023-04-24T02:32:04;12.60;22.70
19132;DHT22;9698;51.976;7.570;2023-04-24T02:34:31;12.60;33.20
19132;DHT22;9698;51.976;7.570;2023-04-24T02:36:59;12.50;28.90
19132;DHT22;9698;51.976;7.570;2023-04-24T02:39:27;12.50;24.90
19132;DHT22;9698;51.976;7.570;2023-04-24T02:41:55;12.50;18.30
19132;DHT22;9698;51.976;7.570;2023-04-24T02:44:23;12.50;25.30
19132;DHT22;9698;51.976;7.570;2023-04-24T02:46:50;12.60;43.40
19132;DHT22;9698;51.976;7.570;2023-04-24T02:49:18;12.50;51.10
19132;DHT22;9698;51.976;7.570;2023-04-24T02:51:46;12.50;70.00
19132;DHT22;9698;51.976;7.570;2023-04-24T02:54:14;12.50;69.30
19132;DHT22;9698;51.976;7.570;2023-04-24T02:56:41;12.50;69.20
19132;DHT22;9698;51.976;7.570;2023-04-24T02:59:09;12.20;67.90
19132;DHT22;9698;51.976;7.570;2023-04-24T03:01:37;12.40;71.20
19132;DHT22;9698;51.976;7.570;2023-04-24T03:04:05;12.50;63.40
19132;DHT22;9698;51.976;7.570;2023-04-24T03:06:33;12.30;73.90
19132;DHT22;9698;51.976;7.570;2023-04-24T03:09:02;12.30;86.10
19132;DHT22;9698;51.976;7.570;2023-04-24T03:11:30;12.30;76.00
19132;DHT22;9698;51.976;7.570;2023-04-24T03:13:58;12.20;99.10
19132;DHT22;9698;51.976;7.570;2023-04-24T03:16:26;12.20;93.20
19132;DHT22;9698;51.976;7.570;2023-04-24T03:18:54;12.10;96.20
19132;DHT22;9698;51.976;7.570;2023-04-24T03:21:22;12.10;99.80
19132;DHT22;9698;51.976;7.570;2023-04-24T03:23:50;12.00;99.90
19132;DHT22;9698;51.976;7.570;2023-04-24T03:26:17;12.10;96.90
19132;DHT22;9698;51.976;7.570;2023-04-24T03:28:45;12.50;99.30
19132;DHT22;9698;51.976;7.570;2023-04-24T03:31:13;12.00;99.90
19132;DHT22;9698;51.976;7.570;2023-04-24T03:33:42;12.20;99.90
19132;DHT22;9698;51.976;7.570;2023-04-24T03:36:10;12.00;99.90
19132;DHT22;9698;51.976;7.570;2023-04-24T03:38:38;12.00;99.90
19132;DHT22;9698;51.976;7.570;2023-04-24T03:41:06;12.00;99.90
19132;DHT22;9698;51.976;7.570;2023-04-24T03:43:34;12.00;99.90
19132;DHT22;9698;51.976;7.570;2023-04-24T03:46:02;11.90;99.90
19132;DHT22;9698;51.976;7.570;2023-04-24T03:48:30;11.90;99.90
19132;DHT22;9698;51.976;7.570;2023-04-24T03:50:58;11.90;99.90
19132;DHT22;9698;51.976;7.570;2023-04-24T03:53:25;11.80;99.90
19132;DHT22;9698;51.976;7.570;2023-04-24T03:55:54;11.80;99.90
19132;DHT22;9698;51.976;7.570;2023-04-24T03:58:22;11.80;99.90
19132;DHT22;9698;51.976;7.570;2023-04-24T04:00:50;12.00;99.90
19132;DHT22;9698;51.976;7.570;2023-04-24T04:03:18;11.80;99.90
19132;DHT22;9698;51.976;7.570;2023-04-24T04:05:46;11.80;99.90
19132;DHT22;9698;51.976;7.570;2023-04-24T04:08:14;11.80;99.90
19132;DHT22;9698;51.976;7.570;2023-04-24T04:10:42;11.80;99.90
19132;DHT22;9698;51.976;7.570;2023-04-24T04:13:10;11.70;99.90
19132;DHT22;9698;51.976;7.570;2023-04-24T04:15:37;11.70;99.90
19132;DHT22;9698;51.976;7.570;2023-04-24T04:18:05;11.70;99.90
19132;DHT22;9698;51.976;7.570;2023-04-24T04:20:33;11.70;99.90
19132;DHT22;9698;51.976;7.570;2023-04-24T04:23:01;11.70;99.90
19132;DHT22;9698;51.976;7.570;2023-04-24T04:25:29;11.70;99.90
19132;DHT22;9698;51.976;7.570;2023-04-24T04:27:57;11.70;99.90
19132;DHT22;9698;51.976;7.570;2023-04-24T04:30:27;11.70;99.90
19132;DHT22;9698;51.976;7.570;2023-04-24T04:32:56;11.80;99.90
19132;DHT22;9698;51.976;7.570;2023-04-24T04:35:24;11.70;99.90
19132;DHT22;9698;51.976;7.570;2023-04-24T04:37:52;11.70;99.90
19132;DHT22;9698;51.976;7.570;2023-04-24T04:40:21;11.70;99.90
19132;DHT22;9698;51.976;7.570;2023-04-24T04:42:49;11.60;99.90
19132;DHT22;9698;51.976;7.570;2023-04-24T04:45:20;11.70;99.90
19132;DHT22;9698;51.976;7.570;2023-04-24T04:47:48;11.70;99.90
19132;DHT22;9698;51.976;7.570;2023-04-24T04:50:16;11.60;99.90
19132;DHT22;9698;51.976;7.570;2023-04-24T04:52:46;11.70;99.90
19132;DHT22;9698;51.976;7.570;2023-04-24T04:55:14;11.70;99.90
19132;DHT22;9698;51.976;7.570;2023-04-24T04:57:42;11.60;99.90
19132;DHT22;9698;51.976;7.570;2023-04-24T05:00:12;11.90;99.90
19132;DHT22;9698;51.976;7.570;2023-04-24T05:02:41;11.50;99.90
19132;DHT22;9698;51.976;7.570;2023-04-24T05:05:10;11.50;99.90
19132;DHT22;9698;51.976;7.570;2023-04-24T05:07:37;11.60;99.90
19132;DHT22;9698;51.976;7.570;2023-04-24T05:10:08;11.90;99.90
19132;DHT22;9698;51.976;7.570;2023-04-24T05:12:36;11.50;99.90
19132;DHT22;9698;51.976;7.570;2023-04-24T05:15:05;11.50;99.90
19132;DHT22;9698;51.976;7.570;2023-04-24T05:17:33;11.40;99.90
19132;DHT22;9698;51.976;7.570;2023-04-24T05:20:01;11.40;99.90
19132;DHT22;9698;51.976;7.570;2023-04-24T05:22:32;11.40;99.90
19132;DHT22;9698;51.976;7.570;2023-04-24T05:25:00;11.40;99.90
19132;DHT22;9698;51.976;7.570;2023-04-24T05:27:28;11.40;99.90
19132;DHT22;9698;51.976;7.570;2023-04-24T05:29:56;11.50;99.90
19132;DHT22;9698;51.976;7.570;2023-04-24T05:32:23;11.50;99.90
19132;DHT22;9698;51.976;7.570;2023-04-24T05:34:51;11.50;99.90
19132;DHT22;9698;51.976;7.570;2023-04-24T05:37:19;11.40;99.90
19132;DHT22;9698;51.976;7.570;2023-04-24T05:39:47;11.50;99.90
19132;DHT22;9698;51.976;7.570;2023-04-24T05:42:15;11.60;99.90
19132;DHT22;9698;51.976;7.570;2023-04-24T05:44:43;11.40;99.90
19132;DHT22;9698;51.976;7.570;2023-04-24T05:47:11;11.40;99.90
19132;DHT22;9698;51.976;7.570;2023-04-24T05:49:38;11.50;99.90
19132;DHT22;9698;51.976;7.570;2023-04-24T05:52:06;11.50;99.90
19132;DHT22;9698;51.976;7.570;2023-04-24T05:54:35;11.50;99.90
19132;DHT22;9698;51.976;7.570;2023-04-24T05:57:03;11.60;99.90
19132;DHT22;9698;51.976;7.570;2023-04-24T05:59:36;11.50;99.90
19132;DHT22;9698;51.976;7.570;2023-04-24T06:02:04;11.50;99.90
19132;DHT22;9698;51.976;7.570;2023-04-24T06:04:33;11.50;99.90
19132;DHT22;9698;51.976;7.570;2023-04-24T06:07:02;11.50;99.90
19132;DHT22;9698;51.976;7.570;2023-04-24T06:09:30;11.50;99.90
19132;DHT22;9698;51.976;7.570;2023-04-24T06:11:58;11.60;99.90
19132;DHT22;9698;51.976;7.570;2023-04-24T06:14:27;11.50;99.90
19132;DHT22;9698;51.976;7.570;2023-04-24T06:16:55;11.40;99.90
19132;DHT22;9698;51.976;7.570;2023-04-24T06:19:23;11.60;99.90
19132;DHT22;9698;51.976;7.570;2023-04-24T06:24:40;11.60;99.90
19132;DHT22;9698;51.976;7.570;2023-04-24T06:29:54;11.50;99.90
19132;DHT22;9698;51.976;7.570;2023-04-24T06:32:23;11.50;99.90
19132;DHT22;9698;51.976;7.570;2023-04-24T06:34:52;11.40;99.90
19132;DHT22;9698;51.976;7.570;2023-04-24T06:37:20;11.40;99.90
19132;DHT22;9698;51.976;7.570;2023-04-24T06:39:48;11.20;99.90
19132;DHT22;9698;51.976;7.570;2023-04-24T06:42:16;11.40;99.90
19132;DHT22;9698;51.976;7.570;2023-04-24T06:44:44;11.40;99.90
19132;DHT22;9698;51.976;7.570;2023-04-24T06:47:12;11.40;99.90
19132;DHT22;9698;51.976;7.570;2023-04-24T06:49:41;11.40;99.90
19132;DHT22;9698;51.976;7.570;2023-04-24T06:52:09;11.40;99.90
19132;DHT22;9698;51.976;7.570;2023-04-24T06:54:37;11.40;99.90
19132;DHT22;9698;51.976;7.570;2023-04-24T06:57:05;11.40;99.90
19132;DHT22;9698;51.976;7.570;2023-04-24T06:59:33;11.40;99.90
19132;DHT22;9698;51.976;7.570;2023-04-24T07:02:00;11.40;99.90
19132;DHT22;9698;51.976;7.570;2023-04-24T07:04:28;11.40;99.90
19132;DHT22;9698;51.976;7.570;2023-04-24T07:06:56;11.40;99.90
19132;DHT22;9698;51.976;7.570;2023-04-24T07:09:25;11.40;99.90
19132;DHT22;9698;51.976;7.570;2023-04-24T07:11:54;11.30;99.90
19132;DHT22;9698;51.976;7.570;2023-04-24T07:14:23;11.40;99.90
19132;DHT22;9698;51.976;7.570;2023-04-24T07:16:51;11.30;99.90
19132;DHT22;9698;51.976;7.570;2023-04-24T07:19:19;11.20;99.90
19132;DHT22;9698;51.976;7.570;2023-04-24T07:21:47;11.40;99.90
19132;DHT22;9698;51.976;7.570;2023-04-24T07:24:15;11.30;99.90
19132;DHT22;9698;51.976;7.570;2023-04-24T07:26:44;11.20;99.90
19132;DHT22;9698;51.976;7.570;2023-04-24T07:29:14;11.30;99.90
19132;DHT22;9698;51.976;7.570;2023-04-24T07:31:42;11.20;99.90
19132;DHT22;9698;51.976;7.570;2023-04-24T07:34:10;11.00;99.90
19132;DHT22;9698;51.976;7.570;2023-04-24T07:36:38;11.10;99.90
19132;DHT22;9698;51.976;7.570;2023-04-24T07:39:05;11.10;99.90
19132;DHT22;9698;51.976;7.570;2023-04-24T07:41:33;11.10;99.90
19132;DHT22;9698;51.976;7.570;2023-04-24T07:44:01;11.10;99.90
19132;DHT22;9698;51.976;7.570;2023-04-24T07:46:30;11.10;99.90
19132;DHT22;9698;51.976;7.570;2023-04-24T07:48:58;11.20;99.90
19132;DHT22;9698;51.976;7.570;2023-04-24T07:51:40;11.10;99.90
19132;DHT22;9698;51.976;7.570;2023-04-24T07:54:09;11.10;99.90
19132;DHT22;9698;51.976;7.570;2023-04-24T07:56:36;11.20;99.90
19132;DHT22;9698;51.976;7.570;2023-04-24T07:59:06;11.20;99.90
19132;DHT22;9698;51.976;7.570;2023-04-24T08:01:34;11.20;99.90
19132;DHT22;9698;51.976;7.570;2023-04-24T08:04:02;11.20;99.90
19132;DHT22;9698;51.976;7.570;2023-04-24T08:06:30;11.20;99.90
19132;DHT22;9698;51.976;7.570;2023-04-24T08:09:00;11.10;99.90
19132;DHT22;9698;51.976;7.570;2023-04-24T08:11:28;11.30;99.90
19132;DHT22;9698;51.976;7.570;2023-04-24T08:13:56;11.10;99.90
19132;DHT22;9698;51.976;7.570;2023-04-24T08:16:24;11.10;99.90
19132;DHT22;9698;51.976;7.570;2023-04-24T08:18:52;11.00;99.90
19132;DHT22;9698;51.976;7.570;2023-04-24T08:21:20;11.10;99.90
19132;DHT22;9698;51.976;7.570;2023-04-24T08:23:48;11.10;99.90
19132;DHT22;9698;51.976;7.570;2023-04-24T08:26:17;11.00;99.90
19132;DHT22;9698;51.976;7.570;2023-04-24T08:28:45;11.10;99.90
19132;DHT22;9698;51.976;7.570;2023-04-24T08:31:13;11.00;99.90
19132;DHT22;9698;51.976;7.570;2023-04-24T08:33:41;11.10;99.90
19132;DHT22;9698;51.976;7.570;2023-04-24T08:36:09;11.00;99.90
19132;DHT22;9698;51.976;7.570;2023-04-24T08:38:37;10.90;99.90
19132;DHT22;9698;51.976;7.570;2023-04-24T08:41:06;11.00;99.90
19132;DHT22;9698;51.976;7.570;2023-04-24T08:43:35;11.00;99.90
19132;DHT22;9698;51.976;7.570;2023-04-24T08:46:04;11.10;99.90
19132;DHT22;9698;51.976;7.570;2023-04-24T08:48:39;11.10;99.90
19132;DHT22;9698;51.976;7.570;2023-04-24T08:51:09;11.10;99.90
19132;DHT22;9698;51.976;7.570;2023-04-24T08:53:38;11.10;99.90
19132;DHT22;9698;51.976;7.570;2023-04-24T08:56:06;11.10;99.90
19132;DHT22;9698;51.976;7.570;2023-04-24T08:58:34;11.10;99.90
19132;DHT22;9698;51.976;7.570;2023-04-24T09:01:03;11.10;99.90
19132;DHT22;9698;51.976;7.570;2023-04-24T09:03:33;11.10;99.90
19132;DHT22;9698;51.976;7.570;2023-04-24T09:06:03;11.20;99.90
19132;DHT22;9698;51.976;7.570;2023-04-24T09:08:31;11.10;99.90
19132;DHT22;9698;51.976;7.570;2023-04-24T09:11:00;11.20;99.90
19132;DHT22;9698;51.976;7.570;2023-04-24T09:13:31;11.20;99.90
19132;DHT22;9698;51.976;7.570;2023-04-24T09:15:59;11.10;99.90
19132;DHT22;9698;51.976;7.570;2023-04-24T09:18:27;11.00;99.90
19132;DHT22;9698;51.976;7.570;2023-04-24T09:21:00;11.10;99.90
19132;DHT22;9698;51.976;7.570;2023-04-24T09:23:29;11.10;99.90
19132;DHT22;9698;51.976;7.570;2023-04-24T09:25:59;11.00;99.90
19132;DHT22;9698;51.976;7.570;2023-04-24T09:28:32;11.10;99.90
19132;DHT22;9698;51.976;7.570;2023-04-24T09:31:08;11.10;99.90
19132;DHT22;9698;51.976;7.570;2023-04-24T09:33:37;11.00;99.90
19132;DHT22;9698;51.976;7.570;2023-04-24T09:36:05;11.10;99.90
19132;DHT22;9698;51.976;7.570;2023-04-24T09:38:38;11.10;99.90
19132;DHT22;9698;51.976;7.570;2023-04-24T09:41:07;11.00;99.90
19132;DHT22;9698;51.976;7.570;2023-04-24T09:43:36;9.80;99.90
19132;DHT22;9698;51.976;7.570;2023-04-24T09:46:07;9.20;99.90
19132;DHT22;9698;51.976;7.570;2023-04-24T09:48:37;10.90;99.90
19132;DHT22;9698;51.976;7.570;2023-04-24T09:51:06;10.90;99.90
19132;DHT22;9698;51.976;7.570;2023-04-24T09:53:37;10.80;99.90
19132;DHT22;9698;51.976;7.570;2023-04-24T09:56:09;10.70;99.90
19132;DHT22;9698;51.976;7.570;2023-04-24T10:01:30;10.90;99.90
19132;DHT22;9698;51.976;7.570;2023-04-24T10:03:59;11.10;99.90
19132;DHT22;9698;51.976;7.570;2023-04-24T10:06:33;10.80;99.90
19132;DHT22;9698;51.976;7.570;2023-04-24T10:09:02;10.70;99.90
19132;DHT22;9698;51.976;7.570;2023-04-24T10:11:31;10.80;99.90
19132;DHT22;9698;51.976;7.570;2023-04-24T10:13:59;11.30;99.90
19132;DHT22;9698;51.976;7.570;2023-04-24T10:16:28;10.90;99.90
19132;DHT22;9698;51.976;7.570;2023-04-24T10:18:58;10.90;99.90
19132;DHT22;9698;51.976;7.570;2023-04-24T10:21:27;10.80;99.90
19132;DHT22;9698;51.976;7.570;2023-04-24T10:23:55;10.80;99.90
19132;DHT22;9698;51.976;7.570;2023-04-24T10:26:24;11.00;99.90
19132;DHT22;9698;51.976;7.570;2023-04-24T10:28:53;10.90;99.90
19132;DHT22;9698;51.976;7.570;2023-04-24T10:31:22;10.90;99.90
19132;DHT22;9698;51.976;7.570;2023-04-24T10:33:51;10.90;99.90
19132;DHT22;9698;51.976;7.570;2023-04-24T10:39:12;10.60;99.90
19132;DHT22;9698;51.976;7.570;2023-04-24T10:41:42;10.50;99.90
19132;DHT22;9698;51.976;7.570;2023-04-24T10:44:11;10.40;99.90
19132;DHT22;9698;51.976;7.570;2023-04-24T10:46:43;10.50;99.90
19132;DHT22;9698;51.976;7.570;2023-04-24T10:49:12;10.40;99.90
19132;DHT22;9698;51.976;7.570;2023-04-24T10:51:49;10.30;99.90
19132;DHT22;9698;51.976;7.570;2023-04-24T10:54:25;10.30;99.90
19132;DHT22;9698;51.976;7.570;2023-04-24T10:56:55;10.10;99.90
19132;DHT22;9698;51.976;7.570;2023-04-24T11:00:14;10.00;99.90
19132;DHT22;9698;51.976;7.570;2023-04-24T11:02:45;10.10;99.90
19132;DHT22;9698;51.976;7.570;2023-04-24T11:05:17;10.10;99.90
19132;DHT22;9698;51.976;7.570;2023-04-24T11:11:02;10.30;99.90
19132;DHT22;9698;51.976;7.570;2023-04-24T11:14:03;10.20;99.90
19132;DHT22;9698;51.976;7.570;2023-04-24T11:16:33;10.10;99.90
19132;DHT22;9698;51.976;7.570;2023-04-24T11:19:04;8.80;99.90
19132;DHT22;9698;51.976;7.570;2023-04-24T11:21:38;10.10;99.90
19132;DHT22;9698;51.976;7.570;2023-04-24T11:24:27;10.10;99.90
19132;DHT22;9698;51.976;7.570;2023-04-24T11:26:57;10.20;99.90
19132;DHT22;9698;51.976;7.570;2023-04-24T11:29:42;10.10;99.90
19132;DHT22;9698;51.976;7.570;2023-04-24T11:32:30;10.10;99.90
19132;DHT22;9698;51.976;7.570;2023-04-24T11:37:46;10.30;99.90
19132;DHT22;9698;51.976;7.570;2023-04-24T11:40:35;10.50;99.90
19132;DHT22;9698;51.976;7.570;2023-04-24T11:43:06;10.20;99.90
19132;DHT22;9698;51.976;7.570;2023-04-24T11:45:35;10.00;99.90
19132;DHT22;9698;51.976;7.570;2023-04-24T11:48:04;10.20;99.90
19132;DHT22;9698;51.976;7.570;2023-04-24T11:50:32;10.20;99.90
19132;DHT22;9698;51.976;7.570;2023-04-24T11:53:00;10.10;99.90
19132;DHT22;9698;51.976;7.570;2023-04-24T11:55:30;10.10;99.90
19132;DHT22;9698;51.976;7.570;2023-04-24T11:57:58;10.00;99.90
19132;DHT22;9698;51.976;7.570;2023-04-24T12:00:29;10.10;99.90
19132;DHT22;9698;51.976;7.570;2023-04-24T12:03:06;10.10;99.90
19132;DHT22;9698;51.976;7.570;2023-04-24T12:05:35;10.40;99.90
19132;DHT22;9698;51.976;7.570;2023-04-24T12:08:05;11.00;99.90
19132;DHT22;9698;51.976;7.570;2023-04-24T12:10:34;11.60;99.90
19132;DHT22;9698;51.976;7.570;2023-04-24T12:13:03;11.80;99.90
19132;DHT22;9698;51.976;7.570;2023-04-24T12:15:32;12.40;99.90
19132;DHT22;9698;51.976;7.570;2023-04-24T12:18:01;12.00;99.90
19132;DHT22;9698;51.976;7.570;2023-04-24T12:20:31;10.80;99.90
19132;DHT22;9698;51.976;7.570;2023-04-24T12:23:01;11.10;99.90
19132;DHT22;9698;51.976;7.570;2023-04-24T12:25:30;10.80;99.90
19132;DHT22;9698;51.976;7.570;2023-04-24T12:28:11;10.60;99.90
19132;DHT22;9698;51.976;7.570;2023-04-24T12:30:41;10.40;99.90
19132;DHT22;9698;51.976;7.570;2023-04-24T12:33:11;10.40;99.90
19132;DHT22;9698;51.976;7.570;2023-04-24T12:35:41;10.40;99.90
19132;DHT22;9698;51.976;7.570;2023-04-24T12:38:11;10.40;99.90
19132;DHT22;9698;51.976;7.570;2023-04-24T12:40:40;10.50;99.90
19132;DHT22;9698;51.976;7.570;2023-04-24T12:43:14;10.50;99.90
19132;DHT22;9698;51.976;7.570;2023-04-24T12:45:43;10.40;99.90
19132;DHT22;9698;51.976;7.570;2023-04-24T12:48:12;10.50;99.90
19132;DHT22;9698;51.976;7.570;2023-04-24T12:50:41;10.50;99.90
19132;DHT22;9698;51.976;7.570;2023-04-24T12:53:13;10.50;99.90
19132;DHT22;9698;51.976;7.570;2023-04-24T12:55:41;10.50;99.90
19132;DHT22;9698;51.976;7.570;2023-04-24T12:58:09;10.50;99.90
19132;DHT22;9698;51.976;7.570;2023-04-24T13:00:37;10.50;99.90
19132;DHT22;9698;51.976;7.570;2023-04-24T13:03:06;10.50;99.90
19132;DHT22;9698;51.976;7.570;2023-04-24T13:05:34;10.50;99.90
19132;DHT22;9698;51.976;7.570;2023-04-24T13:08:02;10.60;99.90
19132;DHT22;9698;51.976;7.570;2023-04-24T13:10:30;10.50;99.90
19132;DHT22;9698;51.976;7.570;2023-04-24T13:12:59;10.40;99.90
19132;DHT22;9698;51.976;7.570;2023-04-24T13:15:27;10.50;99.90
19132;DHT22;9698;51.976;7.570;2023-04-24T13:17:55;10.50;99.90
19132;DHT22;9698;51.976;7.570;2023-04-24T13:20:24;10.50;99.90
19132;DHT22;9698;51.976;7.570;2023-04-24T13:22:54;10.60;99.90
19132;DHT22;9698;51.976;7.570;2023-04-24T13:25:22;10.60;99.90
19132;DHT22;9698;51.976;7.570;2023-04-24T13:27:53;10.60;99.90
19132;DHT22;9698;51.976;7.570;2023-04-24T13:33:06;10.80;99.90
19132;DHT22;9698;51.976;7.570;2023-04-24T13:35:35;10.70;99.90
19132;DHT22;9698;51.976;7.570;2023-04-24T13:38:03;10.70;99.90
19132;DHT22;9698;51.976;7.570;2023-04-24T13:40:34;10.80;99.90
19132;DHT22;9698;51.976;7.570;2023-04-24T13:43:03;10.80;99.90
19132;DHT22;9698;51.976;7.570;2023-04-24T13:45:31;10.80;99.90
19132;DHT22;9698;51.976;7.570;2023-04-24T13:47:59;10.80;99.90
19132;DHT22;9698;51.976;7.570;2023-04-24T13:50:29;10.70;99.90
19132;DHT22;9698;51.976;7.570;2023-04-24T13:52:58;10.80;99.90
19132;DHT22;9698;51.976;7.570;2023-04-24T13:55:30;10.60;99.90
19132;DHT22;9698;51.976;7.570;2023-04-24T13:57:59;10.50;99.90
19132;DHT22;9698;51.976;7.570;2023-04-24T14:00:29;10.50;99.90
19132;DHT22;9698;51.976;7.570;2023-04-24T14:02:58;10.50;99.90
19132;DHT22;9698;51.976;7.570;2023-04-24T14:05:27;10.30;99.90
19132;DHT22;9698;51.976;7.570;2023-04-24T14:07:55;10.50;99.90
19132;DHT22;9698;51.976;7.570;2023-04-24T14:10:24;10.60;99.90
19132;DHT22;9698;51.976;7.570;2023-04-24T14:12:53;10.60;99.90
19132;DHT22;9698;51.976;7.570;2023-04-24T14:15:21;10.50;99.90
19132;DHT22;9698;51.976;7.570;2023-04-24T14:17:49;10.60;99.90
19132;DHT22;9698;51.976;7.570;2023-04-24T14:20:17;10.60;99.90
19132;DHT22;9698;51.976;7.570;2023-04-24T14:22:45;10.70;99.90
19132;DHT22;9698;51.976;7.570;2023-04-24T14:25:14;10.70;99.90
19132;DHT22;9698;51.976;7.570;2023-04-24T14:27:42;10.80;99.90
19132;DHT22;9698;51.976;7.570;2023-04-24T14:30:11;10.80;99.90
19132;DHT22;9698;51.976;7.570;2023-04-24T14:32:40;10.70;99.90
19132;DHT22;9698;51.976;7.570;2023-04-24T14:35:09;10.80;99.90
19132;DHT22;9698;51.976;7.570;2023-04-24T14:37:37;10.80;99.90
19132;DHT22;9698;51.976;7.570;2023-04-24T14:40:10;10.80;99.90
19132;DHT22;9698;51.976;7.570;2023-04-24T14:43:19;10.90;99.90
19132;DHT22;9698;51.976;7.570;2023-04-24T14:45:47;10.80;99.90
19132;DHT22;9698;51.976;7.570;2023-04-24T14:48:15;10.90;99.90
19132;DHT22;9698;51.976;7.570;2023-04-24T14:50:43;10.80;99.90
19132;DHT22;9698;51.976;7.570;2023-04-24T14:53:14;11.00;99.90
19132;DHT22;9698;51.976;7.570;2023-04-24T14:55:42;10.90;99.90
19132;DHT22;9698;51.976;7.570;2023-04-24T14:58:10;10.40;99.90
19132;DHT22;9698;51.976;7.570;2023-04-24T15:00:38;10.90;99.90
19132;DHT22;9698;51.976;7.570;2023-04-24T15:03:06;11.00;99.90
19132;DHT22;9698;51.976;7.570;2023-04-24T15:05:34;11.10;99.90
19132;DHT22;9698;51.976;7.570;2023-04-24T15:08:03;11.10;99.90
19132;DHT22;9698;51.976;7.570;2023-04-24T15:10:32;11.10;99.90
19132;DHT22;9698;51.976;7.570;2023-04-24T15:13:00;11.20;99.90
19132;DHT22;9698;51.976;7.570;2023-04-24T15:15:28;11.10;99.90
19132;DHT22;9698;51.976;7.570;2023-04-24T15:17:56;11.10;99.90
19132;DHT22;9698;51.976;7.570;2023-04-24T15:20:24;11.10;99.90
19132;DHT22;9698;51.976;7.570;2023-04-24T15:22:52;11.00;99.90
19132;DHT22;9698;51.976;7.570;2023-04-24T15:25:20;11.10;99.90
19132;DHT22;9698;51.976;7.570;2023-04-24T15:27:48;10.90;99.90
19132;DHT22;9698;51.976;7.570;2023-04-24T15:30:16;10.90;99.90
19132;DHT22;9698;51.976;7.570;2023-04-24T15:32:44;11.20;99.90
19132;DHT22;9698;51.976;7.570;2023-04-24T15:37:40;11.20;99.90
19132;DHT22;9698;51.976;7.570;2023-04-24T15:40:10;11.00;99.90
19132;DHT22;9698;51.976;7.570;2023-04-24T15:42:40;11.10;99.90
19132;DHT22;9698;51.976;7.570;2023-04-24T15:45:10;11.00;99.90
19132;DHT22;9698;51.976;7.570;2023-04-24T15:47:39;11.10;99.90
19132;DHT22;9698;51.976;7.570;2023-04-24T15:50:09;11.40;99.90
19132;DHT22;9698;51.976;7.570;2023-04-24T15:52:41;10.90;99.90
19132;DHT22;9698;51.976;7.570;2023-04-24T15:55:11;10.80;99.90
19132;DHT22;9698;51.976;7.570;2023-04-24T15:57:39;10.80;99.90
19132;DHT22;9698;51.976;7.570;2023-04-24T16:00:09;11.00;99.90
19132;DHT22;9698;51.976;7.570;2023-04-24T16:02:38;11.60;99.90
19132;DHT22;9698;51.976;7.570;2023-04-24T16:05:07;11.80;99.90
19132;DHT22;9698;51.976;7.570;2023-04-24T16:07:37;12.30;99.90
19132;DHT22;9698;51.976;7.570;2023-04-24T16:10:07;12.60;99.90
19132;DHT22;9698;51.976;7.570;2023-04-24T16:12:35;12.80;99.90
19132;DHT22;9698;51.976;7.570;2023-04-24T16:15:05;12.90;62.60
19132;DHT22;9698;51.976;7.570;2023-04-24T16:17:34;13.00;99.90
19132;DHT22;9698;51.976;7.570;2023-04-24T16:20:02;13.30;96.80
19132;DHT22;9698;51.976;7.570;2023-04-24T16:22:30;12.90;1.00